sensor_id;sensor_type;location;lat;lon;timestamp;P1;durP1;ratioP1;P2;durP2;ratioP2
22973;SDS011;11653;50.848;4.584;2024-02-04T00:01:03;19.17;;;10.87;;
22973;SDS011;11653;50.848;4.584;2024-02-04T00:03:28;19.97;;;10.13;;
22973;SDS011;11653;50.848;4.584;2024-02-04T00:05:54;22.43;;;11.03;;
22973;SDS011;11653;50.848;4.584;2024-02-04T00:08:20;18.50;;;9.07;;
22973;SDS011;11653;50.848;4.584;2024-02-04T00:10:46;18.70;;;11.03;;
22973;SDS011;11653;50.848;4.584;2024-02-04T00:13:12;12.00;;;7.80;;
22973;SDS011;11653;50.848;4.584;2024-02-04T00:15:38;19.40;;;10.07;;
22973;SDS011;11653;50.848;4.584;2024-02-04T00:18:03;12.47;;;9.37;;
22973;SDS011;11653;50.848;4.584;2024-02-04T00:20:29;20.03;;;10.37;;
22973;SDS011;11653;50.848;4.584;2024-02-04T00:22:57;13.97;;;10.60;;
22973;SDS011;11653;50.848;4.584;2024-02-04T00:25:23;17.37;;;11.00;;
22973;SDS011;11653;50.848;4.584;2024-02-04T00:27:49;19.37;;;9.37;;
22973;SDS011;11653;50.848;4.584;2024-02-04T00:30:14;13.40;;;9.97;;
22973;SDS011;11653;50.848;4.584;2024-02-04T00:32:40;14.43;;;9.90;;
22973;SDS011;11653;50.848;4.584;2024-02-04T00:35:06;14.40;;;10.23;;
22973;SDS011;11653;50.848;4.584;2024-02-04T00:37:31;17.47;;;10.33;;
22973;SDS011;11653;50.848;4.584;2024-02-04T00:39:57;14.73;;;8.77;;
22973;SDS011;11653;50.848;4.584;2024-02-04T00:42:23;11.57;;;8.20;;
22973;SDS011;11653;50.848;4.584;2024-02-04T00:44:48;10.73;;;8.10;;
22973;SDS011;11653;50.848;4.584;2024-02-04T00:47:14;11.83;;;9.07;;
22973;SDS011;11653;50.848;4.584;2024-02-04T00:49:40;14.93;;;8.97;;
22973;SDS011;11653;50.848;4.584;2024-02-04T00:52:05;12.30;;;8.53;;
22973;SDS011;11653;50.848;4.584;2024-02-04T00:54:31;18.20;;;9.60;;
22973;SDS011;11653;50.848;4.584;2024-02-04T00:56:57;13.70;;;8.40;;
22973;SDS011;11653;50.848;4.584;2024-02-04T00:59:23;12.70;;;8.47;;
22973;SDS011;11653;50.848;4.584;2024-02-04T01:01:48;12.87;;;9.30;;
22973;SDS011;11653;50.848;4.584;2024-02-04T01:04:14;14.07;;;8.97;;
22973;SDS011;11653;50.848;4.584;2024-02-04T01:06:40;15.13;;;7.07;;
22973;SDS011;11653;50.848;4.584;2024-02-04T01:09:06;10.87;;;7.90;;
22973;SDS011;11653;50.848;4.584;2024-02-04T01:11:33;13.03;;;8.93;;
22973;SDS011;11653;50.848;4.584;2024-02-04T01:13:59;12.80;;;8.77;;
22973;SDS011;11653;50.848;4.584;2024-02-04T01:16:24;12.60;;;8.90;;
22973;SDS011;11653;50.848;4.584;2024-02-04T01:18:51;15.00;;;8.43;;
22973;SDS011;11653;50.848;4.584;2024-02-04T01:21:17;14.13;;;9.63;;
22973;SDS011;11653;50.848;4.584;2024-02-04T01:23:42;10.70;;;7.63;;
22973;SDS011;11653;50.848;4.584;2024-02-04T01:26:08;14.90;;;8.43;;
22973;SDS011;11653;50.848;4.584;2024-02-04T01:28:34;12.03;;;8.07;;
22973;SDS011;11653;50.848;4.584;2024-02-04T01:31:00;11.37;;;7.90;;
22973;SDS011;11653;50.848;4.584;2024-02-04T01:33:26;11.47;;;8.00;;
22973;SDS011;11653;50.848;4.584;2024-02-04T01:35:51;10.73;;;7.33;;
22973;SDS011;11653;50.848;4.584;2024-02-04T01:38:17;15.00;;;8.57;;
22973;SDS011;11653;50.848;4.584;2024-02-04T01:40:43;11.57;;;7.93;;
22973;SDS011;11653;50.848;4.584;2024-02-04T01:43:11;12.10;;;7.80;;
22973;SDS011;11653;50.848;4.584;2024-02-04T01:45:37;14.47;;;8.30;;
22973;SDS011;11653;50.848;4.584;2024-02-04T01:48:03;10.77;;;8.03;;
22973;SDS011;11653;50.848;4.584;2024-02-04T01:50:29;11.87;;;7.80;;
22973;SDS011;11653;50.848;4.584;2024-02-04T01:52:55;14.90;;;8.30;;
22973;SDS011;11653;50.848;4.584;2024-02-04T01:55:21;14.70;;;8.77;;
22973;SDS011;11653;50.848;4.584;2024-02-04T01:57:47;15.20;;;8.80;;
22973;SDS011;11653;50.848;4.584;2024-02-04T02:00:14;15.00;;;8.87;;
22973;SDS011;11653;50.848;4.584;2024-02-04T02:02:40;12.47;;;8.80;;
22973;SDS011;11653;50.848;4.584;2024-02-04T02:05:07;15.17;;;9.20;;
22973;SDS011;11653;50.848;4.584;2024-02-04T02:07:34;13.93;;;8.67;;
22973;SDS011;11653;50.848;4.584;2024-02-04T02:10:02;12.83;;;8.80;;
22973;SDS011;11653;50.848;4.584;2024-02-04T02:12:32;10.27;;;8.17;;
22973;SDS011;11653;50.848;4.584;2024-02-04T02:15:16;17.70;;;9.43;;
22973;SDS011;11653;50.848;4.584;2024-02-04T02:17:54;14.60;;;9.20;;
22973;SDS011;11653;50.848;4.584;2024-02-04T02:20:27;14.00;;;8.60;;
22973;SDS011;11653;50.848;4.584;2024-02-04T02:23:21;17.47;;;9.93;;
22973;SDS011;11653;50.848;4.584;2024-02-04T02:25:53;15.63;;;9.77;;
22973;SDS011;11653;50.848;4.584;2024-02-04T02:28:20;12.07;;;8.10;;
22973;SDS011;11653;50.848;4.584;2024-02-04T02:30:46;17.07;;;9.93;;
22973;SDS011;11653;50.848;4.584;2024-02-04T02:33:11;18.23;;;9.87;;
22973;SDS011;11653;50.848;4.584;2024-02-04T02:35:37;14.80;;;9.17;;
22973;SDS011;11653;50.848;4.584;2024-02-04T02:38:25;13.87;;;9.33;;
22973;SDS011;11653;50.848;4.584;2024-02-04T02:40:57;17.70;;;9.97;;
22973;SDS011;11653;50.848;4.584;2024-02-04T02:43:24;15.17;;;9.17;;
22973;SDS011;11653;50.848;4.584;2024-02-04T02:45:51;14.80;;;8.93;;
22973;SDS011;11653;50.848;4.584;2024-02-04T02:48:17;13.97;;;9.17;;
22973;SDS011;11653;50.848;4.584;2024-02-04T02:50:43;16.90;;;8.57;;
22973;SDS011;11653;50.848;4.584;2024-02-04T02:53:09;17.23;;;9.77;;
22973;SDS011;11653;50.848;4.584;2024-02-04T02:55:35;21.17;;;9.67;;
22973;SDS011;11653;50.848;4.584;2024-02-04T02:58:00;16.43;;;10.27;;
22973;SDS011;11653;50.848;4.584;2024-02-04T03:00:26;17.87;;;10.30;;
22973;SDS011;11653;50.848;4.584;2024-02-04T03:02:52;18.67;;;10.17;;
22973;SDS011;11653;50.848;4.584;2024-02-04T03:05:18;14.87;;;8.30;;
22973;SDS011;11653;50.848;4.584;2024-02-04T03:07:44;21.93;;;11.50;;
22973;SDS011;11653;50.848;4.584;2024-02-04T03:10:10;24.93;;;11.57;;
22973;SDS011;11653;50.848;4.584;2024-02-04T03:12:36;22.93;;;9.97;;
22973;SDS011;11653;50.848;4.584;2024-02-04T03:15:02;21.60;;;11.17;;
22973;SDS011;11653;50.848;4.584;2024-02-04T03:17:28;20.03;;;11.27;;
22973;SDS011;11653;50.848;4.584;2024-02-04T03:19:53;23.87;;;11.87;;
22973;SDS011;11653;50.848;4.584;2024-02-04T03:22:22;21.63;;;10.50;;
22973;SDS011;11653;50.848;4.584;2024-02-04T03:24:48;27.53;;;11.13;;
22973;SDS011;11653;50.848;4.584;2024-02-04T03:27:14;24.60;;;11.67;;
22973;SDS011;11653;50.848;4.584;2024-02-04T03:29:43;24.13;;;11.43;;
22973;SDS011;11653;50.848;4.584;2024-02-04T03:32:10;24.57;;;11.23;;
22973;SDS011;11653;50.848;4.584;2024-02-04T03:34:36;22.57;;;11.63;;
22973;SDS011;11653;50.848;4.584;2024-02-04T03:37:02;22.47;;;11.40;;
22973;SDS011;11653;50.848;4.584;2024-02-04T03:39:28;19.80;;;9.90;;
22973;SDS011;11653;50.848;4.584;2024-02-04T03:41:54;19.73;;;9.53;;
22973;SDS011;11653;50.848;4.584;2024-02-04T03:44:19;17.20;;;10.37;;
22973;SDS011;11653;50.848;4.584;2024-02-04T03:46:48;25.93;;;10.67;;
22973;SDS011;11653;50.848;4.584;2024-02-04T03:49:15;23.13;;;11.20;;
22973;SDS011;11653;50.848;4.584;2024-02-04T03:51:41;22.63;;;10.33;;
22973;SDS011;11653;50.848;4.584;2024-02-04T03:54:06;20.43;;;9.87;;
22973;SDS011;11653;50.848;4.584;2024-02-04T03:56:32;18.00;;;9.43;;
22973;SDS011;11653;50.848;4.584;2024-02-04T03:58:58;22.90;;;11.17;;
22973;SDS011;11653;50.848;4.584;2024-02-04T04:01:24;23.07;;;10.33;;
22973;SDS011;11653;50.848;4.584;2024-02-04T04:03:49;24.93;;;9.70;;
22973;SDS011;11653;50.848;4.584;2024-02-04T04:06:15;18.80;;;9.77;;
22973;SDS011;11653;50.848;4.584;2024-02-04T04:08:41;19.53;;;9.63;;
22973;SDS011;11653;50.848;4.584;2024-02-04T04:11:10;20.40;;;9.83;;
22973;SDS011;11653;50.848;4.584;2024-02-04T04:13:36;22.40;;;9.63;;
22973;SDS011;11653;50.848;4.584;2024-02-04T04:16:03;15.53;;;8.43;;
22973;SDS011;11653;50.848;4.584;2024-02-04T04:18:29;15.13;;;9.67;;
22973;SDS011;11653;50.848;4.584;2024-02-04T04:20:55;19.43;;;9.50;;
22973;SDS011;11653;50.848;4.584;2024-02-04T04:23:21;18.40;;;9.90;;
22973;SDS011;11653;50.848;4.584;2024-02-04T04:25:47;19.23;;;10.13;;
22973;SDS011;11653;50.848;4.584;2024-02-04T04:28:12;17.13;;;8.97;;
22973;SDS011;11653;50.848;4.584;2024-02-04T04:30:38;19.30;;;8.67;;
22973;SDS011;11653;50.848;4.584;2024-02-04T04:33:04;16.60;;;8.90;;
22973;SDS011;11653;50.848;4.584;2024-02-04T04:35:31;19.00;;;8.63;;
22973;SDS011;11653;50.848;4.584;2024-02-04T04:37:57;21.30;;;9.33;;
22973;SDS011;11653;50.848;4.584;2024-02-04T04:40:22;18.03;;;9.33;;
22973;SDS011;11653;50.848;4.584;2024-02-04T04:42:48;13.30;;;7.90;;
22973;SDS011;11653;50.848;4.584;2024-02-04T04:45:14;15.00;;;8.97;;
22973;SDS011;11653;50.848;4.584;2024-02-04T04:47:40;16.43;;;8.20;;
22973;SDS011;11653;50.848;4.584;2024-02-04T04:50:06;17.73;;;8.43;;
22973;SDS011;11653;50.848;4.584;2024-02-04T04:52:32;12.57;;;7.47;;
22973;SDS011;11653;50.848;4.584;2024-02-04T04:54:57;17.40;;;8.50;;
22973;SDS011;11653;50.848;4.584;2024-02-04T04:57:23;13.77;;;7.70;;
22973;SDS011;11653;50.848;4.584;2024-02-04T04:59:49;13.83;;;7.27;;
22973;SDS011;11653;50.848;4.584;2024-02-04T05:02:14;15.80;;;7.40;;
22973;SDS011;11653;50.848;4.584;2024-02-04T05:04:43;13.00;;;7.43;;
22973;SDS011;11653;50.848;4.584;2024-02-04T05:07:10;16.47;;;7.37;;
22973;SDS011;11653;50.848;4.584;2024-02-04T05:09:36;17.03;;;6.87;;
22973;SDS011;11653;50.848;4.584;2024-02-04T05:12:08;13.33;;;7.00;;
22973;SDS011;11653;50.848;4.584;2024-02-04T05:14:34;12.10;;;7.13;;
22973;SDS011;11653;50.848;4.584;2024-02-04T05:17:00;16.53;;;6.57;;
22973;SDS011;11653;50.848;4.584;2024-02-04T05:19:26;13.13;;;6.80;;
22973;SDS011;11653;50.848;4.584;2024-02-04T05:21:51;14.57;;;6.30;;
22973;SDS011;11653;50.848;4.584;2024-02-04T05:24:17;13.13;;;6.80;;
22973;SDS011;11653;50.848;4.584;2024-02-04T05:26:43;11.90;;;6.07;;
22973;SDS011;11653;50.848;4.584;2024-02-04T05:29:09;11.50;;;6.60;;
22973;SDS011;11653;50.848;4.584;2024-02-04T05:31:39;10.80;;;6.10;;
22973;SDS011;11653;50.848;4.584;2024-02-04T05:34:06;13.53;;;6.67;;
22973;SDS011;11653;50.848;4.584;2024-02-04T05:36:32;13.93;;;7.00;;
22973;SDS011;11653;50.848;4.584;2024-02-04T05:39:08;12.97;;;6.43;;
22973;SDS011;11653;50.848;4.584;2024-02-04T05:41:35;9.33;;;5.60;;
22973;SDS011;11653;50.848;4.584;2024-02-04T05:44:01;17.03;;;6.70;;
22973;SDS011;11653;50.848;4.584;2024-02-04T05:46:26;12.83;;;6.67;;
22973;SDS011;11653;50.848;4.584;2024-02-04T05:48:52;12.60;;;6.83;;
22973;SDS011;11653;50.848;4.584;2024-02-04T05:51:18;16.80;;;7.47;;
22973;SDS011;11653;50.848;4.584;2024-02-04T05:53:44;17.33;;;8.30;;
22973;SDS011;11653;50.848;4.584;2024-02-04T05:56:09;22.50;;;8.23;;
22973;SDS011;11653;50.848;4.584;2024-02-04T05:58:35;25.37;;;9.03;;
22973;SDS011;11653;50.848;4.584;2024-02-04T06:01:01;17.57;;;8.60;;
22973;SDS011;11653;50.848;4.584;2024-02-04T06:03:27;18.07;;;9.03;;
22973;SDS011;11653;50.848;4.584;2024-02-04T06:05:53;25.07;;;10.20;;
22973;SDS011;11653;50.848;4.584;2024-02-04T06:08:18;18.67;;;9.00;;
22973;SDS011;11653;50.848;4.584;2024-02-04T06:10:44;23.90;;;9.87;;
22973;SDS011;11653;50.848;4.584;2024-02-04T06:13:10;17.77;;;9.17;;
22973;SDS011;11653;50.848;4.584;2024-02-04T06:15:36;22.47;;;10.20;;
22973;SDS011;11653;50.848;4.584;2024-02-04T06:18:01;21.17;;;8.60;;
22973;SDS011;11653;50.848;4.584;2024-02-04T06:20:27;18.10;;;9.47;;
22973;SDS011;11653;50.848;4.584;2024-02-04T06:22:53;17.20;;;8.20;;
22973;SDS011;11653;50.848;4.584;2024-02-04T06:25:18;20.60;;;8.60;;
22973;SDS011;11653;50.848;4.584;2024-02-04T06:27:44;19.37;;;9.30;;
22973;SDS011;11653;50.848;4.584;2024-02-04T06:30:10;17.30;;;8.63;;
22973;SDS011;11653;50.848;4.584;2024-02-04T06:32:36;23.73;;;8.53;;
22973;SDS011;11653;50.848;4.584;2024-02-04T06:35:02;21.33;;;8.80;;
22973;SDS011;11653;50.848;4.584;2024-02-04T06:37:28;24.37;;;10.30;;
22973;SDS011;11653;50.848;4.584;2024-02-04T06:39:54;17.30;;;9.03;;
22973;SDS011;11653;50.848;4.584;2024-02-04T06:42:20;18.90;;;9.23;;
22973;SDS011;11653;50.848;4.584;2024-02-04T06:44:45;25.63;;;9.70;;
22973;SDS011;11653;50.848;4.584;2024-02-04T06:47:11;18.53;;;8.30;;
22973;SDS011;11653;50.848;4.584;2024-02-04T06:49:39;16.33;;;8.33;;
22973;SDS011;11653;50.848;4.584;2024-02-04T06:52:08;13.07;;;7.43;;
22973;SDS011;11653;50.848;4.584;2024-02-04T06:54:34;18.50;;;7.90;;
22973;SDS011;11653;50.848;4.584;2024-02-04T06:56:59;11.57;;;6.20;;
22973;SDS011;11653;50.848;4.584;2024-02-04T06:59:25;15.33;;;7.63;;
22973;SDS011;11653;50.848;4.584;2024-02-04T07:01:51;19.47;;;9.53;;
22973;SDS011;11653;50.848;4.584;2024-02-04T07:04:18;17.73;;;8.37;;
22973;SDS011;11653;50.848;4.584;2024-02-04T07:06:46;21.57;;;9.30;;
22973;SDS011;11653;50.848;4.584;2024-02-04T07:09:12;19.47;;;8.90;;
22973;SDS011;11653;50.848;4.584;2024-02-04T07:11:38;22.27;;;8.63;;
22973;SDS011;11653;50.848;4.584;2024-02-04T07:14:04;17.93;;;8.23;;
22973;SDS011;11653;50.848;4.584;2024-02-04T07:16:31;9.20;;;5.33;;
22973;SDS011;11653;50.848;4.584;2024-02-04T07:18:57;14.07;;;8.07;;
22973;SDS011;11653;50.848;4.584;2024-02-04T07:21:22;18.47;;;7.60;;
22973;SDS011;11653;50.848;4.584;2024-02-04T07:23:48;12.87;;;7.80;;
22973;SDS011;11653;50.848;4.584;2024-02-04T07:26:14;18.33;;;7.80;;
22973;SDS011;11653;50.848;4.584;2024-02-04T07:28:40;13.27;;;7.17;;
22973;SDS011;11653;50.848;4.584;2024-02-04T07:31:06;22.00;;;9.80;;
22973;SDS011;11653;50.848;4.584;2024-02-04T07:33:32;20.30;;;9.07;;
22973;SDS011;11653;50.848;4.584;2024-02-04T07:35:57;16.47;;;8.60;;
22973;SDS011;11653;50.848;4.584;2024-02-04T07:38:23;18.03;;;8.37;;
22973;SDS011;11653;50.848;4.584;2024-02-04T07:40:49;18.43;;;7.67;;
22973;SDS011;11653;50.848;4.584;2024-02-04T07:43:14;26.00;;;10.40;;
22973;SDS011;11653;50.848;4.584;2024-02-04T07:45:40;21.03;;;10.63;;
22973;SDS011;11653;50.848;4.584;2024-02-04T07:48:07;21.13;;;9.77;;
22973;SDS011;11653;50.848;4.584;2024-02-04T07:50:34;22.17;;;9.77;;
22973;SDS011;11653;50.848;4.584;2024-02-04T07:53:00;20.77;;;10.53;;
22973;SDS011;11653;50.848;4.584;2024-02-04T07:55:25;15.63;;;8.43;;
22973;SDS011;11653;50.848;4.584;2024-02-04T07:57:51;24.80;;;10.30;;
22973;SDS011;11653;50.848;4.584;2024-02-04T08:00:17;17.10;;;9.20;;
22973;SDS011;11653;50.848;4.584;2024-02-04T08:02:46;19.13;;;9.13;;
22973;SDS011;11653;50.848;4.584;2024-02-04T08:05:12;19.93;;;10.00;;
22973;SDS011;11653;50.848;4.584;2024-02-04T08:07:38;20.60;;;9.10;;
22973;SDS011;11653;50.848;4.584;2024-02-04T08:10:04;16.23;;;9.20;;
22973;SDS011;11653;50.848;4.584;2024-02-04T08:12:31;15.57;;;7.00;;
22973;SDS011;11653;50.848;4.584;2024-02-04T08:14:56;14.40;;;8.60;;
22973;SDS011;11653;50.848;4.584;2024-02-04T08:17:22;17.63;;;9.90;;
22973;SDS011;11653;50.848;4.584;2024-02-04T08:19:47;18.60;;;9.43;;
22973;SDS011;11653;50.848;4.584;2024-02-04T08:22:13;17.73;;;8.97;;
22973;SDS011;11653;50.848;4.584;2024-02-04T08:24:39;19.60;;;8.97;;
22973;SDS011;11653;50.848;4.584;2024-02-04T08:27:05;14.47;;;7.80;;
22973;SDS011;11653;50.848;4.584;2024-02-04T08:29:30;11.63;;;7.43;;
22973;SDS011;11653;50.848;4.584;2024-02-04T08:31:56;10.70;;;6.60;;
22973;SDS011;11653;50.848;4.584;2024-02-04T08:34:22;15.77;;;7.77;;
22973;SDS011;11653;50.848;4.584;2024-02-04T08:36:50;12.87;;;8.20;;
22973;SDS011;11653;50.848;4.584;2024-02-04T08:39:17;14.40;;;7.70;;
22973;SDS011;11653;50.848;4.584;2024-02-04T08:41:42;12.37;;;6.80;;
22973;SDS011;11653;50.848;4.584;2024-02-04T08:44:08;13.67;;;7.17;;
22973;SDS011;11653;50.848;4.584;2024-02-04T08:46:33;14.70;;;7.47;;
22973;SDS011;11653;50.848;4.584;2024-02-04T08:48:59;14.50;;;6.97;;
22973;SDS011;11653;50.848;4.584;2024-02-04T08:51:25;10.57;;;5.83;;
22973;SDS011;11653;50.848;4.584;2024-02-04T08:53:50;13.33;;;6.43;;
22973;SDS011;11653;50.848;4.584;2024-02-04T08:56:16;12.33;;;6.53;;
22973;SDS011;11653;50.848;4.584;2024-02-04T08:58:42;18.07;;;7.93;;
22973;SDS011;11653;50.848;4.584;2024-02-04T09:01:08;9.80;;;4.67;;
22973;SDS011;11653;50.848;4.584;2024-02-04T09:03:37;17.37;;;7.30;;
22973;SDS011;11653;50.848;4.584;2024-02-04T09:06:03;9.63;;;5.43;;
22973;SDS011;11653;50.848;4.584;2024-02-04T09:08:28;12.40;;;6.33;;
22973;SDS011;11653;50.848;4.584;2024-02-04T09:10:54;12.27;;;5.97;;
22973;SDS011;11653;50.848;4.584;2024-02-04T09:13:20;8.13;;;5.87;;
22973;SDS011;11653;50.848;4.584;2024-02-04T09:15:45;10.70;;;6.27;;
22973;SDS011;11653;50.848;4.584;2024-02-04T09:18:11;12.17;;;4.93;;
22973;SDS011;11653;50.848;4.584;2024-02-04T09:20:37;9.30;;;5.20;;
22973;SDS011;11653;50.848;4.584;2024-02-04T09:23:03;11.83;;;5.60;;
22973;SDS011;11653;50.848;4.584;2024-02-04T09:25:30;12.27;;;5.10;;
22973;SDS011;11653;50.848;4.584;2024-02-04T09:27:55;8.60;;;4.33;;
22973;SDS011;11653;50.848;4.584;2024-02-04T09:30:21;9.53;;;5.27;;
22973;SDS011;11653;50.848;4.584;2024-02-04T09:32:47;10.03;;;4.10;;
22973;SDS011;11653;50.848;4.584;2024-02-04T09:35:12;7.23;;;3.00;;
22973;SDS011;11653;50.848;4.584;2024-02-04T09:37:38;5.83;;;3.57;;
22973;SDS011;11653;50.848;4.584;2024-02-04T09:40:04;5.80;;;3.53;;
22973;SDS011;11653;50.848;4.584;2024-02-04T09:42:30;10.03;;;3.33;;
22973;SDS011;11653;50.848;4.584;2024-02-04T09:44:57;8.20;;;2.53;;
22973;SDS011;11653;50.848;4.584;2024-02-04T09:47:23;6.77;;;3.70;;
22973;SDS011;11653;50.848;4.584;2024-02-04T09:49:49;8.40;;;3.07;;
22973;SDS011;11653;50.848;4.584;2024-02-04T09:52:18;6.93;;;2.87;;
22973;SDS011;11653;50.848;4.584;2024-02-04T09:54:48;3.20;;;2.40;;
22973;SDS011;11653;50.848;4.584;2024-02-04T09:57:15;7.97;;;3.40;;
22973;SDS011;11653;50.848;4.584;2024-02-04T09:59:43;7.13;;;3.30;;
22973;SDS011;11653;50.848;4.584;2024-02-04T10:02:09;4.03;;;2.67;;
22973;SDS011;11653;50.848;4.584;2024-02-04T10:04:35;5.57;;;3.20;;
22973;SDS011;11653;50.848;4.584;2024-02-04T10:07:01;6.23;;;3.10;;
22973;SDS011;11653;50.848;4.584;2024-02-04T10:09:27;6.70;;;3.60;;
22973;SDS011;11653;50.848;4.584;2024-02-04T10:11:55;8.03;;;3.20;;
22973;SDS011;11653;50.848;4.584;2024-02-04T10:14:20;6.60;;;3.73;;
22973;SDS011;11653;50.848;4.584;2024-02-04T10:16:46;4.00;;;2.60;;
22973;SDS011;11653;50.848;4.584;2024-02-04T10:19:12;6.57;;;3.83;;
22973;SDS011;11653;50.848;4.584;2024-02-04T10:21:38;6.83;;;4.00;;
22973;SDS011;11653;50.848;4.584;2024-02-04T10:24:05;7.10;;;4.10;;
22973;SDS011;11653;50.848;4.584;2024-02-04T10:26:31;7.10;;;4.13;;
22973;SDS011;11653;50.848;4.584;2024-02-04T10:28:59;16.37;;;4.60;;
22973;SDS011;11653;50.848;4.584;2024-02-04T10:31:26;8.40;;;4.53;;
22973;SDS011;11653;50.848;4.584;2024-02-04T10:33:52;7.20;;;4.27;;
22973;SDS011;11653;50.848;4.584;2024-02-04T10:36:19;9.17;;;4.73;;
22973;SDS011;11653;50.848;4.584;2024-02-04T10:38:45;6.37;;;4.50;;
22973;SDS011;11653;50.848;4.584;2024-02-04T10:41:14;7.33;;;4.63;;
22973;SDS011;11653;50.848;4.584;2024-02-04T10:43:42;7.53;;;4.23;;
22973;SDS011;11653;50.848;4.584;2024-02-04T10:46:09;6.67;;;3.73;;
22973;SDS011;11653;50.848;4.584;2024-02-04T10:48:40;7.60;;;4.07;;
22973;SDS011;11653;50.848;4.584;2024-02-04T10:51:12;6.80;;;3.63;;
22973;SDS011;11653;50.848;4.584;2024-02-04T10:53:43;8.03;;;3.80;;
22973;SDS011;11653;50.848;4.584;2024-02-04T10:58:49;12.03;;;3.37;;
22973;SDS011;11653;50.848;4.584;2024-02-04T11:01:16;4.00;;;2.50;;
22973;SDS011;11653;50.848;4.584;2024-02-04T11:03:43;7.57;;;3.10;;
22973;SDS011;11653;50.848;4.584;2024-02-04T11:06:10;4.67;;;3.20;;
22973;SDS011;11653;50.848;4.584;2024-02-04T11:08:40;6.93;;;2.90;;
22973;SDS011;11653;50.848;4.584;2024-02-04T11:11:07;5.73;;;2.63;;
22973;SDS011;11653;50.848;4.584;2024-02-04T11:13:33;9.27;;;2.67;;
22973;SDS011;11653;50.848;4.584;2024-02-04T11:16:01;3.37;;;2.60;;
22973;SDS011;11653;50.848;4.584;2024-02-04T11:24:45;3.27;;;2.53;;
22973;SDS011;11653;50.848;4.584;2024-02-04T11:27:20;4.57;;;2.00;;
22973;SDS011;11653;50.848;4.584;2024-02-04T11:29:46;3.23;;;1.90;;
22973;SDS011;11653;50.848;4.584;2024-02-04T11:32:12;2.97;;;1.63;;
22973;SDS011;11653;50.848;4.584;2024-02-04T11:34:38;4.30;;;1.97;;
22973;SDS011;11653;50.848;4.584;2024-02-04T11:37:19;6.47;;;1.90;;
22973;SDS011;11653;50.848;4.584;2024-02-04T11:39:49;3.97;;;1.63;;
22973;SDS011;11653;50.848;4.584;2024-02-04T11:42:16;4.80;;;1.90;;
22973;SDS011;11653;50.848;4.584;2024-02-04T11:44:42;3.30;;;1.80;;
22973;SDS011;11653;50.848;4.584;2024-02-04T11:47:08;1.80;;;1.70;;
22973;SDS011;11653;50.848;4.584;2024-02-04T11:49:34;2.80;;;1.50;;
22973;SDS011;11653;50.848;4.584;2024-02-04T11:52:00;3.47;;;1.87;;
22973;SDS011;11653;50.848;4.584;2024-02-04T11:54:29;2.40;;;1.57;;
22973;SDS011;11653;50.848;4.584;2024-02-04T11:56:55;1.90;;;1.60;;
22973;SDS011;11653;50.848;4.584;2024-02-04T11:59:23;3.93;;;1.80;;
22973;SDS011;11653;50.848;4.584;2024-02-04T12:01:49;4.83;;;2.10;;
22973;SDS011;11653;50.848;4.584;2024-02-04T12:04:20;5.00;;;2.37;;
22973;SDS011;11653;50.848;4.584;2024-02-04T12:06:46;2.47;;;2.00;;
22973;SDS011;11653;50.848;4.584;2024-02-04T12:09:13;4.37;;;1.97;;
22973;SDS011;11653;50.848;4.584;2024-02-04T12:11:43;4.50;;;2.23;;
22973;SDS011;11653;50.848;4.584;2024-02-04T12:14:09;2.33;;;2.00;;
22973;SDS011;11653;50.848;4.584;2024-02-04T12:16:35;4.73;;;1.90;;
22973;SDS011;11653;50.848;4.584;2024-02-04T12:19:02;3.27;;;1.77;;
22973;SDS011;11653;50.848;4.584;2024-02-04T12:21:31;2.00;;;1.53;;
22973;SDS011;11653;50.848;4.584;2024-02-04T12:23:58;4.67;;;2.13;;
22973;SDS011;11653;50.848;4.584;2024-02-04T12:26:24;4.73;;;2.00;;
22973;SDS011;11653;50.848;4.584;2024-02-04T12:28:50;6.00;;;1.80;;
22973;SDS011;11653;50.848;4.584;2024-02-04T12:31:19;3.93;;;2.10;;
22973;SDS011;11653;50.848;4.584;2024-02-04T12:33:55;3.47;;;1.60;;
22973;SDS011;11653;50.848;4.584;2024-02-04T12:36:29;4.30;;;1.90;;
22973;SDS011;11653;50.848;4.584;2024-02-04T12:38:56;5.30;;;2.00;;
22973;SDS011;11653;50.848;4.584;2024-02-04T12:41:23;6.60;;;2.33;;
22973;SDS011;11653;50.848;4.584;2024-02-04T12:43:53;1.93;;;1.73;;
22973;SDS011;11653;50.848;4.584;2024-02-04T12:46:20;3.70;;;1.77;;
22973;SDS011;11653;50.848;4.584;2024-02-04T12:48:53;4.90;;;2.40;;
22973;SDS011;11653;50.848;4.584;2024-02-04T12:51:29;10.77;;;3.43;;
22973;SDS011;11653;50.848;4.584;2024-02-04T12:59:30;3.83;;;2.30;;
22973;SDS011;11653;50.848;4.584;2024-02-04T13:02:00;3.37;;;2.30;;
22973;SDS011;11653;50.848;4.584;2024-02-04T13:04:33;2.47;;;1.70;;
22973;SDS011;11653;50.848;4.584;2024-02-04T13:07:06;2.17;;;1.77;;
22973;SDS011;11653;50.848;4.584;2024-02-04T13:09:34;3.03;;;2.30;;
22973;SDS011;11653;50.848;4.584;2024-02-04T13:12:03;1.90;;;1.70;;
22973;SDS011;11653;50.848;4.584;2024-02-04T13:14:30;3.30;;;2.17;;
22973;SDS011;11653;50.848;4.584;2024-02-04T13:16:56;2.53;;;2.33;;
22973;SDS011;11653;50.848;4.584;2024-02-04T13:19:22;2.40;;;2.20;;
22973;SDS011;11653;50.848;4.584;2024-02-04T13:21:48;2.40;;;2.20;;
22973;SDS011;11653;50.848;4.584;2024-02-04T13:24:13;3.23;;;1.60;;
22973;SDS011;11653;50.848;4.584;2024-02-04T13:26:39;2.70;;;1.90;;
22973;SDS011;11653;50.848;4.584;2024-02-04T13:29:05;2.10;;;1.73;;
22973;SDS011;11653;50.848;4.584;2024-02-04T13:31:30;3.47;;;2.00;;
22973;SDS011;11653;50.848;4.584;2024-02-04T13:33:56;2.33;;;1.83;;
22973;SDS011;11653;50.848;4.584;2024-02-04T13:36:22;3.20;;;2.10;;
22973;SDS011;11653;50.848;4.584;2024-02-04T13:38:48;3.57;;;1.90;;
22973;SDS011;11653;50.848;4.584;2024-02-04T13:41:14;1.83;;;1.73;;
22973;SDS011;11653;50.848;4.584;2024-02-04T13:43:39;2.50;;;2.27;;
22973;SDS011;11653;50.848;4.584;2024-02-04T13:46:05;3.97;;;2.10;;
22973;SDS011;11653;50.848;4.584;2024-02-04T13:48:31;3.73;;;2.23;;
22973;SDS011;11653;50.848;4.584;2024-02-04T13:50:56;4.67;;;2.37;;
22973;SDS011;11653;50.848;4.584;2024-02-04T13:53:22;2.17;;;2.00;;
22973;SDS011;11653;50.848;4.584;2024-02-04T13:55:51;3.63;;;2.30;;
22973;SDS011;11653;50.848;4.584;2024-02-04T13:58:16;4.73;;;2.40;;
22973;SDS011;11653;50.848;4.584;2024-02-04T14:00:43;2.40;;;2.20;;
22973;SDS011;11653;50.848;4.584;2024-02-04T14:03:09;4.13;;;2.43;;
22973;SDS011;11653;50.848;4.584;2024-02-04T14:05:34;3.70;;;2.83;;
22973;SDS011;11653;50.848;4.584;2024-02-04T14:08:00;4.00;;;2.30;;
22973;SDS011;11653;50.848;4.584;2024-02-04T14:10:26;4.33;;;2.50;;
22973;SDS011;11653;50.848;4.584;2024-02-04T14:12:52;4.47;;;2.30;;
22973;SDS011;11653;50.848;4.584;2024-02-04T14:15:17;3.90;;;2.30;;
22973;SDS011;11653;50.848;4.584;2024-02-04T14:17:43;4.77;;;2.60;;
22973;SDS011;11653;50.848;4.584;2024-02-04T14:20:09;4.77;;;2.60;;
22973;SDS011;11653;50.848;4.584;2024-02-04T14:22:35;2.73;;;2.37;;
22973;SDS011;11653;50.848;4.584;2024-02-04T14:25:00;3.07;;;2.73;;
22973;SDS011;11653;50.848;4.584;2024-02-04T14:27:26;5.47;;;2.60;;
22973;SDS011;11653;50.848;4.584;2024-02-04T14:29:52;4.93;;;2.70;;
22973;SDS011;11653;50.848;4.584;2024-02-04T14:32:18;4.27;;;2.83;;
22973;SDS011;11653;50.848;4.584;2024-02-04T14:34:44;4.53;;;3.27;;
22973;SDS011;11653;50.848;4.584;2024-02-04T14:37:09;4.17;;;3.33;;
22973;SDS011;11653;50.848;4.584;2024-02-04T14:39:36;4.60;;;3.37;;
22973;SDS011;11653;50.848;4.584;2024-02-04T14:42:02;3.70;;;3.17;;
22973;SDS011;11653;50.848;4.584;2024-02-04T14:44:28;5.43;;;3.23;;
22973;SDS011;11653;50.848;4.584;2024-02-04T14:46:54;6.17;;;3.27;;
22973;SDS011;11653;50.848;4.584;2024-02-04T14:49:19;8.73;;;3.77;;